sensor_id;sensor_type;location;lat;lon;timestamp;P1;durP1;ratioP1;P2;durP2;ratioP2
62102;SDS011;48077;48.104;11.702;2022-08-19T00:00:21;5.95;;;4.10;;
62102;SDS011;48077;48.104;11.702;2022-08-19T00:02:44;7.60;;;4.55;;
62102;SDS011;48077;48.104;11.702;2022-08-19T00:05:09;6.45;;;4.30;;
62102;SDS011;48077;48.104;11.702;2022-08-19T00:07:34;6.07;;;4.22;;
62102;SDS011;48077;48.104;11.702;2022-08-19T00:09:57;6.75;;;4.97;;
62102;SDS011;48077;48.104;11.702;2022-08-19T00:12:20;6.43;;;5.10;;
62102;SDS011;48077;48.104;11.702;2022-08-19T00:14:44;6.07;;;5.00;;
62102;SDS011;48077;48.104;11.702;2022-08-19T00:17:07;6.88;;;5.38;;
62102;SDS011;48077;48.104;11.702;2022-08-19T00:19:32;5.43;;;4.60;;
62102;SDS011;48077;48.104;11.702;2022-08-19T00:21:56;6.82;;;5.03;;
62102;SDS011;48077;48.104;11.702;2022-08-19T00:24:19;6.03;;;4.72;;
62102;SDS011;48077;48.104;11.702;2022-08-19T00:26:43;6.10;;;4.50;;
62102;SDS011;48077;48.104;11.702;2022-08-19T00:29:09;9.40;;;4.70;;
62102;SDS011;48077;48.104;11.702;2022-08-19T00:31:35;6.20;;;4.43;;
62102;SDS011;48077;48.104;11.702;2022-08-19T00:33:58;7.88;;;4.45;;
62102;SDS011;48077;48.104;11.702;2022-08-19T00:36:22;8.43;;;4.43;;
62102;SDS011;48077;48.104;11.702;2022-08-19T00:38:45;9.68;;;5.28;;
62102;SDS011;48077;48.104;11.702;2022-08-19T00:41:11;7.97;;;5.72;;
62102;SDS011;48077;48.104;11.702;2022-08-19T00:43:37;5.68;;;4.40;;
62102;SDS011;48077;48.104;11.702;2022-08-19T00:46:01;6.68;;;4.75;;
62102;SDS011;48077;48.104;11.702;2022-08-19T00:48:27;7.63;;;5.43;;
62102;SDS011;48077;48.104;11.702;2022-08-19T00:50:51;7.40;;;4.97;;
62102;SDS011;48077;48.104;11.702;2022-08-19T00:53:16;5.63;;;3.83;;
62102;SDS011;48077;48.104;11.702;2022-08-19T00:55:44;5.07;;;3.75;;
62102;SDS011;48077;48.104;11.702;2022-08-19T00:58:12;6.85;;;4.22;;
62102;SDS011;48077;48.104;11.702;2022-08-19T01:00:38;9.32;;;5.47;;
62102;SDS011;48077;48.104;11.702;2022-08-19T01:03:01;10.05;;;5.30;;
62102;SDS011;48077;48.104;11.702;2022-08-19T01:05:29;7.72;;;5.40;;
62102;SDS011;48077;48.104;11.702;2022-08-19T01:07:53;7.60;;;5.40;;
62102;SDS011;48077;48.104;11.702;2022-08-19T01:10:19;8.57;;;5.85;;
62102;SDS011;48077;48.104;11.702;2022-08-19T01:12:47;8.27;;;4.95;;
62102;SDS011;48077;48.104;11.702;2022-08-19T01:15:12;6.00;;;5.00;;
62102;SDS011;48077;48.104;11.702;2022-08-19T01:17:39;6.85;;;5.10;;
62102;SDS011;48077;48.104;11.702;2022-08-19T01:20:05;7.47;;;4.82;;
62102;SDS011;48077;48.104;11.702;2022-08-19T01:22:31;6.85;;;4.30;;
62102;SDS011;48077;48.104;11.702;2022-08-19T01:25:02;5.00;;;3.30;;
62102;SDS011;48077;48.104;11.702;2022-08-19T01:27:27;5.05;;;3.47;;
62102;SDS011;48077;48.104;11.702;2022-08-19T01:30:00;6.05;;;3.65;;
62102;SDS011;48077;48.104;11.702;2022-08-19T01:32:23;5.80;;;3.75;;
62102;SDS011;48077;48.104;11.702;2022-08-19T01:34:47;6.28;;;3.85;;
62102;SDS011;48077;48.104;11.702;2022-08-19T01:37:11;5.55;;;3.88;;
62102;SDS011;48077;48.104;11.702;2022-08-19T01:39:34;5.50;;;3.95;;
62102;SDS011;48077;48.104;11.702;2022-08-19T01:41:58;4.57;;;3.58;;
62102;SDS011;48077;48.104;11.702;2022-08-19T01:44:21;7.55;;;4.72;;
62102;SDS011;48077;48.104;11.702;2022-08-19T01:46:47;6.93;;;4.35;;
62102;SDS011;48077;48.104;11.702;2022-08-19T01:49:11;5.47;;;3.85;;
62102;SDS011;48077;48.104;11.702;2022-08-19T01:51:35;5.28;;;3.97;;
62102;SDS011;48077;48.104;11.702;2022-08-19T01:53:59;6.65;;;3.92;;
62102;SDS011;48077;48.104;11.702;2022-08-19T01:56:23;4.55;;;3.20;;
62102;SDS011;48077;48.104;11.702;2022-08-19T01:58:49;5.65;;;3.50;;
62102;SDS011;48077;48.104;11.702;2022-08-19T02:01:29;4.70;;;3.70;;
62102;SDS011;48077;48.104;11.702;2022-08-19T02:03:54;6.60;;;4.30;;
62102;SDS011;48077;48.104;11.702;2022-08-19T02:06:18;5.65;;;4.18;;
62102;SDS011;48077;48.104;11.702;2022-08-19T02:08:42;4.43;;;3.42;;
62102;SDS011;48077;48.104;11.702;2022-08-19T02:11:08;5.63;;;3.90;;
62102;SDS011;48077;48.104;11.702;2022-08-19T02:13:31;5.18;;;3.88;;
62102;SDS011;48077;48.104;11.702;2022-08-19T02:15:55;6.15;;;3.78;;
62102;SDS011;48077;48.104;11.702;2022-08-19T02:18:19;4.78;;;3.47;;
62102;SDS011;48077;48.104;11.702;2022-08-19T02:20:43;7.57;;;4.32;;
62102;SDS011;48077;48.104;11.702;2022-08-19T02:23:07;5.65;;;4.00;;
62102;SDS011;48077;48.104;11.702;2022-08-19T02:25:32;5.35;;;3.97;;
62102;SDS011;48077;48.104;11.702;2022-08-19T02:27:55;6.90;;;4.15;;
62102;SDS011;48077;48.104;11.702;2022-08-19T02:30:19;6.57;;;3.95;;
62102;SDS011;48077;48.104;11.702;2022-08-19T02:32:43;8.55;;;3.50;;
62102;SDS011;48077;48.104;11.702;2022-08-19T02:35:07;5.68;;;3.72;;
62102;SDS011;48077;48.104;11.702;2022-08-19T02:37:30;6.50;;;4.32;;
62102;SDS011;48077;48.104;11.702;2022-08-19T02:40:12;6.07;;;4.10;;
62102;SDS011;48077;48.104;11.702;2022-08-19T02:42:35;6.38;;;3.88;;
62102;SDS011;48077;48.104;11.702;2022-08-19T02:44:59;7.38;;;4.75;;
62102;SDS011;48077;48.104;11.702;2022-08-19T02:47:23;8.00;;;4.95;;
62102;SDS011;48077;48.104;11.702;2022-08-19T02:49:46;5.13;;;3.92;;
62102;SDS011;48077;48.104;11.702;2022-08-19T02:52:12;5.93;;;4.07;;
62102;SDS011;48077;48.104;11.702;2022-08-19T02:54:35;6.63;;;4.15;;
62102;SDS011;48077;48.104;11.702;2022-08-19T02:57:00;4.50;;;4.03;;
62102;SDS011;48077;48.104;11.702;2022-08-19T02:59:23;6.35;;;3.80;;
62102;SDS011;48077;48.104;11.702;2022-08-19T03:01:48;6.15;;;3.72;;
62102;SDS011;48077;48.104;11.702;2022-08-19T03:04:15;4.78;;;3.80;;
62102;SDS011;48077;48.104;11.702;2022-08-19T03:06:39;5.50;;;3.80;;
62102;SDS011;48077;48.104;11.702;2022-08-19T03:09:04;7.25;;;4.45;;
62102;SDS011;48077;48.104;11.702;2022-08-19T03:11:29;5.60;;;4.05;;
62102;SDS011;48077;48.104;11.702;2022-08-19T03:13:54;7.82;;;5.15;;
62102;SDS011;48077;48.104;11.702;2022-08-19T03:16:19;7.55;;;5.78;;
62102;SDS011;48077;48.104;11.702;2022-08-19T03:18:43;6.15;;;4.07;;
62102;SDS011;48077;48.104;11.702;2022-08-19T03:21:06;4.80;;;3.78;;
62102;SDS011;48077;48.104;11.702;2022-08-19T03:23:30;5.57;;;4.00;;
62102;SDS011;48077;48.104;11.702;2022-08-19T03:25:53;5.70;;;3.58;;
62102;SDS011;48077;48.104;11.702;2022-08-19T03:28:17;4.28;;;2.75;;
62102;SDS011;48077;48.104;11.702;2022-08-19T03:30:42;6.30;;;3.67;;
62102;SDS011;48077;48.104;11.702;2022-08-19T03:33:07;7.40;;;3.47;;
62102;SDS011;48077;48.104;11.702;2022-08-19T03:35:31;4.10;;;2.95;;
62102;SDS011;48077;48.104;11.702;2022-08-19T03:37:55;5.68;;;3.10;;
62102;SDS011;48077;48.104;11.702;2022-08-19T03:40:19;4.10;;;3.15;;
62102;SDS011;48077;48.104;11.702;2022-08-19T03:42:42;5.38;;;3.40;;
62102;SDS011;48077;48.104;11.702;2022-08-19T03:45:06;3.83;;;2.72;;
62102;SDS011;48077;48.104;11.702;2022-08-19T03:47:30;4.20;;;3.22;;
62102;SDS011;48077;48.104;11.702;2022-08-19T03:49:53;5.45;;;3.50;;
62102;SDS011;48077;48.104;11.702;2022-08-19T03:52:17;5.43;;;3.42;;
62102;SDS011;48077;48.104;11.702;2022-08-19T03:54:40;5.22;;;3.47;;
62102;SDS011;48077;48.104;11.702;2022-08-19T03:57:04;6.95;;;4.25;;
62102;SDS011;48077;48.104;11.702;2022-08-19T03:59:30;4.22;;;3.58;;
62102;SDS011;48077;48.104;11.702;2022-08-19T04:01:58;5.03;;;3.30;;
62102;SDS011;48077;48.104;11.702;2022-08-19T04:04:24;5.25;;;3.25;;
62102;SDS011;48077;48.104;11.702;2022-08-19T04:06:48;4.68;;;2.85;;
62102;SDS011;48077;48.104;11.702;2022-08-19T04:09:11;4.28;;;3.05;;
62102;SDS011;48077;48.104;11.702;2022-08-19T04:11:39;4.05;;;2.88;;
62102;SDS011;48077;48.104;11.702;2022-08-19T04:14:04;4.63;;;2.72;;
62102;SDS011;48077;48.104;11.702;2022-08-19T04:16:28;7.70;;;3.17;;
62102;SDS011;48077;48.104;11.702;2022-08-19T04:18:51;5.10;;;2.70;;
62102;SDS011;48077;48.104;11.702;2022-08-19T04:21:16;4.20;;;2.70;;
62102;SDS011;48077;48.104;11.702;2022-08-19T04:23:41;3.60;;;2.65;;
62102;SDS011;48077;48.104;11.702;2022-08-19T04:26:05;5.38;;;3.15;;
62102;SDS011;48077;48.104;11.702;2022-08-19T04:28:28;4.28;;;2.72;;
62102;SDS011;48077;48.104;11.702;2022-08-19T04:30:53;3.95;;;2.47;;
62102;SDS011;48077;48.104;11.702;2022-08-19T04:33:18;5.10;;;2.88;;
62102;SDS011;48077;48.104;11.702;2022-08-19T04:35:46;4.78;;;2.42;;
62102;SDS011;48077;48.104;11.702;2022-08-19T04:38:11;3.42;;;2.42;;
62102;SDS011;48077;48.104;11.702;2022-08-19T04:40:39;5.35;;;2.83;;
62102;SDS011;48077;48.104;11.702;2022-08-19T04:43:25;4.72;;;2.75;;
62102;SDS011;48077;48.104;11.702;2022-08-19T04:45:49;3.75;;;2.42;;
62102;SDS011;48077;48.104;11.702;2022-08-19T04:48:14;4.55;;;3.25;;
62102;SDS011;48077;48.104;11.702;2022-08-19T04:50:41;4.22;;;2.53;;
62102;SDS011;48077;48.104;11.702;2022-08-19T04:53:06;5.00;;;3.00;;
62102;SDS011;48077;48.104;11.702;2022-08-19T04:55:30;4.25;;;2.70;;
62102;SDS011;48077;48.104;11.702;2022-08-19T04:57:54;4.00;;;2.58;;
62102;SDS011;48077;48.104;11.702;2022-08-19T05:00:17;4.43;;;3.00;;
62102;SDS011;48077;48.104;11.702;2022-08-19T05:02:41;5.63;;;3.00;;
62102;SDS011;48077;48.104;11.702;2022-08-19T05:05:04;5.63;;;3.25;;
62102;SDS011;48077;48.104;11.702;2022-08-19T05:07:29;3.20;;;2.30;;
62102;SDS011;48077;48.104;11.702;2022-08-19T05:09:53;8.13;;;3.63;;
62102;SDS011;48077;48.104;11.702;2022-08-19T05:12:17;7.18;;;3.58;;
62102;SDS011;48077;48.104;11.702;2022-08-19T05:14:41;5.47;;;2.88;;
62102;SDS011;48077;48.104;11.702;2022-08-19T05:17:04;3.45;;;2.60;;
62102;SDS011;48077;48.104;11.702;2022-08-19T05:19:27;5.70;;;3.58;;
62102;SDS011;48077;48.104;11.702;2022-08-19T05:22:10;4.65;;;2.75;;
62102;SDS011;48077;48.104;11.702;2022-08-19T05:24:51;3.65;;;2.65;;
62102;SDS011;48077;48.104;11.702;2022-08-19T05:27:14;4.25;;;2.63;;
62102;SDS011;48077;48.104;11.702;2022-08-19T05:29:38;4.07;;;2.63;;
62102;SDS011;48077;48.104;11.702;2022-08-19T05:32:03;3.80;;;2.70;;
62102;SDS011;48077;48.104;11.702;2022-08-19T05:34:28;4.88;;;3.25;;
62102;SDS011;48077;48.104;11.702;2022-08-19T05:36:53;5.35;;;2.97;;
62102;SDS011;48077;48.104;11.702;2022-08-19T05:39:19;6.90;;;3.42;;
62102;SDS011;48077;48.104;11.702;2022-08-19T05:41:44;3.25;;;2.42;;
62102;SDS011;48077;48.104;11.702;2022-08-19T05:44:09;5.32;;;2.80;;
62102;SDS011;48077;48.104;11.702;2022-08-19T05:46:32;6.85;;;3.13;;
62102;SDS011;48077;48.104;11.702;2022-08-19T05:48:56;5.25;;;3.08;;
62102;SDS011;48077;48.104;11.702;2022-08-19T05:51:19;3.60;;;2.83;;
62102;SDS011;48077;48.104;11.702;2022-08-19T05:53:43;5.60;;;2.92;;
62102;SDS011;48077;48.104;11.702;2022-08-19T05:56:09;5.32;;;3.75;;
62102;SDS011;48077;48.104;11.702;2022-08-19T05:58:35;6.90;;;4.20;;
62102;SDS011;48077;48.104;11.702;2022-08-19T06:00:59;5.30;;;4.10;;
62102;SDS011;48077;48.104;11.702;2022-08-19T06:03:27;4.78;;;3.45;;
62102;SDS011;48077;48.104;11.702;2022-08-19T06:05:50;4.78;;;3.40;;
62102;SDS011;48077;48.104;11.702;2022-08-19T06:08:14;6.82;;;3.85;;
62102;SDS011;48077;48.104;11.702;2022-08-19T06:10:38;5.60;;;3.95;;
62102;SDS011;48077;48.104;11.702;2022-08-19T06:13:01;4.43;;;2.92;;
62102;SDS011;48077;48.104;11.702;2022-08-19T06:15:25;5.82;;;3.25;;
62102;SDS011;48077;48.104;11.702;2022-08-19T06:17:51;6.40;;;3.30;;
62102;SDS011;48077;48.104;11.702;2022-08-19T06:20:14;6.45;;;4.00;;
62102;SDS011;48077;48.104;11.702;2022-08-19T06:22:41;6.43;;;3.67;;
62102;SDS011;48077;48.104;11.702;2022-08-19T06:25:07;4.43;;;2.97;;
62102;SDS011;48077;48.104;11.702;2022-08-19T06:27:32;5.15;;;3.17;;
62102;SDS011;48077;48.104;11.702;2022-08-19T06:29:56;7.55;;;3.70;;
62102;SDS011;48077;48.104;11.702;2022-08-19T06:32:19;6.80;;;3.75;;
62102;SDS011;48077;48.104;11.702;2022-08-19T06:34:43;6.80;;;3.60;;
62102;SDS011;48077;48.104;11.702;2022-08-19T06:37:06;4.35;;;3.25;;
62102;SDS011;48077;48.104;11.702;2022-08-19T06:39:32;4.97;;;3.28;;
62102;SDS011;48077;48.104;11.702;2022-08-19T06:41:59;4.28;;;3.38;;
62102;SDS011;48077;48.104;11.702;2022-08-19T06:44:24;4.82;;;3.28;;
62102;SDS011;48077;48.104;11.702;2022-08-19T06:46:49;6.03;;;4.15;;
62102;SDS011;48077;48.104;11.702;2022-08-19T06:49:13;5.75;;;4.13;;
62102;SDS011;48077;48.104;11.702;2022-08-19T06:51:37;5.28;;;3.95;;
62102;SDS011;48077;48.104;11.702;2022-08-19T06:54:00;8.15;;;4.90;;
62102;SDS011;48077;48.104;11.702;2022-08-19T06:56:26;5.60;;;3.92;;
62102;SDS011;48077;48.104;11.702;2022-08-19T06:58:56;6.82;;;4.63;;
62102;SDS011;48077;48.104;11.702;2022-08-19T07:01:20;6.15;;;4.70;;
62102;SDS011;48077;48.104;11.702;2022-08-19T07:03:44;8.63;;;6.45;;
62102;SDS011;48077;48.104;11.702;2022-08-19T07:06:10;6.40;;;5.00;;
62102;SDS011;48077;48.104;11.702;2022-08-19T07:08:38;12.25;;;8.43;;
62102;SDS011;48077;48.104;11.702;2022-08-19T07:11:07;9.63;;;6.28;;
62102;SDS011;48077;48.104;11.702;2022-08-19T07:13:31;7.75;;;6.20;;
62102;SDS011;48077;48.104;11.702;2022-08-19T07:15:56;8.07;;;6.40;;
62102;SDS011;48077;48.104;11.702;2022-08-19T07:18:20;10.65;;;6.70;;
62102;SDS011;48077;48.104;11.702;2022-08-19T07:20:44;10.02;;;7.07;;
62102;SDS011;48077;48.104;11.702;2022-08-19T07:23:08;11.38;;;7.65;;
62102;SDS011;48077;48.104;11.702;2022-08-19T07:25:32;8.88;;;7.13;;
62102;SDS011;48077;48.104;11.702;2022-08-19T07:27:56;9.00;;;7.43;;
62102;SDS011;48077;48.104;11.702;2022-08-19T07:30:19;9.15;;;7.57;;
62102;SDS011;48077;48.104;11.702;2022-08-19T07:32:43;10.02;;;7.30;;
62102;SDS011;48077;48.104;11.702;2022-08-19T07:35:06;10.80;;;8.43;;
62102;SDS011;48077;48.104;11.702;2022-08-19T07:37:30;10.00;;;7.43;;
62102;SDS011;48077;48.104;11.702;2022-08-19T07:39:53;11.25;;;7.45;;
62102;SDS011;48077;48.104;11.702;2022-08-19T07:42:17;11.90;;;7.78;;
62102;SDS011;48077;48.104;11.702;2022-08-19T07:44:41;11.18;;;7.88;;
62102;SDS011;48077;48.104;11.702;2022-08-19T07:47:04;8.35;;;6.70;;
62102;SDS011;48077;48.104;11.702;2022-08-19T07:49:29;8.85;;;5.88;;
62102;SDS011;48077;48.104;11.702;2022-08-19T07:51:58;10.63;;;8.07;;
62102;SDS011;48077;48.104;11.702;2022-08-19T07:54:24;11.95;;;8.50;;
62102;SDS011;48077;48.104;11.702;2022-08-19T07:56:49;11.98;;;8.82;;
62102;SDS011;48077;48.104;11.702;2022-08-19T07:59:13;8.73;;;6.90;;
62102;SDS011;48077;48.104;11.702;2022-08-19T08:01:37;10.20;;;7.45;;
62102;SDS011;48077;48.104;11.702;2022-08-19T08:04:02;8.50;;;7.00;;
62102;SDS011;48077;48.104;11.702;2022-08-19T08:06:44;8.73;;;7.25;;
62102;SDS011;48077;48.104;11.702;2022-08-19T08:09:28;10.25;;;8.20;;
62102;SDS011;48077;48.104;11.702;2022-08-19T08:12:05;8.52;;;6.78;;
62102;SDS011;48077;48.104;11.702;2022-08-19T08:14:33;8.65;;;6.43;;
62102;SDS011;48077;48.104;11.702;2022-08-19T08:17:06;8.38;;;6.35;;
62102;SDS011;48077;48.104;11.702;2022-08-19T08:19:30;8.65;;;6.57;;
62102;SDS011;48077;48.104;11.702;2022-08-19T08:21:55;12.10;;;8.35;;
62102;SDS011;48077;48.104;11.702;2022-08-19T08:24:20;13.70;;;7.75;;
62102;SDS011;48077;48.104;11.702;2022-08-19T08:26:43;10.27;;;7.93;;
62102;SDS011;48077;48.104;11.702;2022-08-19T08:29:07;10.05;;;7.35;;
62102;SDS011;48077;48.104;11.702;2022-08-19T08:31:33;10.73;;;6.63;;
62102;SDS011;48077;48.104;11.702;2022-08-19T08:33:56;9.07;;;7.15;;
62102;SDS011;48077;48.104;11.702;2022-08-19T08:36:20;9.82;;;6.93;;
62102;SDS011;48077;48.104;11.702;2022-08-19T08:38:44;11.25;;;8.15;;
62102;SDS011;48077;48.104;11.702;2022-08-19T08:44:14;11.00;;;7.03;;
62102;SDS011;48077;48.104;11.702;2022-08-19T08:46:43;10.23;;;7.85;;
62102;SDS011;48077;48.104;11.702;2022-08-19T08:49:17;9.65;;;7.35;;
62102;SDS011;48077;48.104;11.702;2022-08-19T08:51:51;12.20;;;8.68;;
62102;SDS011;48077;48.104;11.702;2022-08-19T08:54:19;11.75;;;8.38;;
62102;SDS011;48077;48.104;11.702;2022-08-19T08:56:47;12.40;;;8.15;;
62102;SDS011;48077;48.104;11.702;2022-08-19T08:59:16;11.13;;;8.00;;
62102;SDS011;48077;48.104;11.702;2022-08-19T09:01:48;12.48;;;8.57;;
62102;SDS011;48077;48.104;11.702;2022-08-19T09:04:12;12.02;;;8.40;;
62102;SDS011;48077;48.104;11.702;2022-08-19T09:09:29;12.93;;;9.00;;
62102;SDS011;48077;48.104;11.702;2022-08-19T09:16:53;14.68;;;9.40;;
62102;SDS011;48077;48.104;11.702;2022-08-19T09:19:16;19.30;;;12.88;;
62102;SDS011;48077;48.104;11.702;2022-08-19T09:21:40;22.92;;;13.75;;
62102;SDS011;48077;48.104;11.702;2022-08-19T09:24:03;16.55;;;12.15;;
62102;SDS011;48077;48.104;11.702;2022-08-19T09:26:28;17.77;;;11.27;;
62102;SDS011;48077;48.104;11.702;2022-08-19T09:28:52;18.27;;;11.77;;
62102;SDS011;48077;48.104;11.702;2022-08-19T09:31:19;19.27;;;12.48;;
62102;SDS011;48077;48.104;11.702;2022-08-19T09:33:44;18.48;;;11.82;;
62102;SDS011;48077;48.104;11.702;2022-08-19T09:36:09;14.90;;;11.07;;
62102;SDS011;48077;48.104;11.702;2022-08-19T09:38:34;15.90;;;10.30;;
62102;SDS011;48077;48.104;11.702;2022-08-19T09:41:05;16.48;;;11.85;;
62102;SDS011;48077;48.104;11.702;2022-08-19T09:43:31;16.25;;;11.35;;
62102;SDS011;48077;48.104;11.702;2022-08-19T09:45:56;18.25;;;11.85;;
62102;SDS011;48077;48.104;11.702;2022-08-19T09:48:19;15.73;;;11.05;;
62102;SDS011;48077;48.104;11.702;2022-08-19T09:50:43;14.48;;;10.07;;
62102;SDS011;48077;48.104;11.702;2022-08-19T09:53:07;12.98;;;9.20;;
62102;SDS011;48077;48.104;11.702;2022-08-19T09:55:30;13.98;;;10.07;;
62102;SDS011;48077;48.104;11.702;2022-08-19T09:57:54;13.20;;;9.38;;
62102;SDS011;48077;48.104;11.702;2022-08-19T10:00:17;13.57;;;9.55;;
62102;SDS011;48077;48.104;11.702;2022-08-19T10:02:40;10.68;;;8.35;;
62102;SDS011;48077;48.104;11.702;2022-08-19T10:05:04;9.73;;;7.47;;
62102;SDS011;48077;48.104;11.702;2022-08-19T10:07:46;12.88;;;8.18;;
62102;SDS011;48077;48.104;11.702;2022-08-19T10:10:09;13.45;;;10.73;;
62102;SDS011;48077;48.104;11.702;2022-08-19T10:12:33;12.18;;;9.48;;
62102;SDS011;48077;48.104;11.702;2022-08-19T10:14:57;13.95;;;10.30;;
62102;SDS011;48077;48.104;11.702;2022-08-19T10:17:20;15.52;;;11.05;;
62102;SDS011;48077;48.104;11.702;2022-08-19T10:19:44;13.85;;;10.23;;
62102;SDS011;48077;48.104;11.702;2022-08-19T10:22:07;13.90;;;9.98;;
62102;SDS011;48077;48.104;11.702;2022-08-19T10:24:30;17.20;;;10.48;;
62102;SDS011;48077;48.104;11.702;2022-08-19T10:26:55;20.92;;;13.57;;
62102;SDS011;48077;48.104;11.702;2022-08-19T10:29:19;18.25;;;12.05;;
62102;SDS011;48077;48.104;11.702;2022-08-19T10:31:42;19.17;;;11.57;;
62102;SDS011;48077;48.104;11.702;2022-08-19T10:34:06;19.90;;;11.18;;
62102;SDS011;48077;48.104;11.702;2022-08-19T10:36:33;16.25;;;11.30;;
62102;SDS011;48077;48.104;11.702;2022-08-19T10:38:59;18.23;;;12.88;;
62102;SDS011;48077;48.104;11.702;2022-08-19T10:41:27;21.38;;;13.80;;
62102;SDS011;48077;48.104;11.702;2022-08-19T10:43:56;23.05;;;14.95;;
62102;SDS011;48077;48.104;11.702;2022-08-19T10:46:22;22.83;;;16.58;;
62102;SDS011;48077;48.104;11.702;2022-08-19T10:48:47;28.73;;;24.73;;
62102;SDS011;48077;48.104;11.702;2022-08-19T10:51:11;49.10;;;44.42;;
62102;SDS011;48077;48.104;11.702;2022-08-19T10:53:54;93.82;;;84.30;;
62102;SDS011;48077;48.104;11.702;2022-08-19T10:56:18;122.22;;;109.03;;
62102;SDS011;48077;48.104;11.702;2022-08-19T10:59:00;170.75;;;137.27;;
62102;SDS011;48077;48.104;11.702;2022-08-19T11:01:26;190.52;;;150.45;;
62102;SDS011;48077;48.104;11.702;2022-08-19T11:03:50;221.00;;;167.82;;
62102;SDS011;48077;48.104;11.702;2022-08-19T11:06:13;241.68;;;179.88;;
62102;SDS011;48077;48.104;11.702;2022-08-19T11:08:36;260.95;;;192.73;;
62102;SDS011;48077;48.104;11.702;2022-08-19T11:11:01;285.73;;;207.07;;
62102;SDS011;48077;48.104;11.702;2022-08-19T11:13:27;293.98;;;214.00;;
62102;SDS011;48077;48.104;11.702;2022-08-19T11:15:59;312.55;;;225.13;;
62102;SDS011;48077;48.104;11.702;2022-08-19T11:18:23;328.85;;;234.40;;
62102;SDS011;48077;48.104;11.702;2022-08-19T11:20:47;347.45;;;242.80;;
62102;SDS011;48077;48.104;11.702;2022-08-19T11:23:10;362.33;;;253.65;;
62102;SDS011;48077;48.104;11.702;2022-08-19T11:25:37;371.77;;;254.52;;
62102;SDS011;48077;48.104;11.702;2022-08-19T11:28:01;374.45;;;257.75;;
62102;SDS011;48077;48.104;11.702;2022-08-19T11:30:25;392.73;;;268.10;;
62102;SDS011;48077;48.104;11.702;2022-08-19T11:32:48;400.38;;;270.27;;
62102;SDS011;48077;48.104;11.702;2022-08-19T11:35:12;414.33;;;277.60;;
62102;SDS011;48077;48.104;11.702;2022-08-19T11:37:35;421.65;;;282.20;;
62102;SDS011;48077;48.104;11.702;2022-08-19T11:40:00;426.83;;;283.27;;
62102;SDS011;48077;48.104;11.702;2022-08-19T11:42:24;433.17;;;289.17;;
62102;SDS011;48077;48.104;11.702;2022-08-19T11:45:06;443.13;;;292.15;;
62102;SDS011;48077;48.104;11.702;2022-08-19T11:47:30;447.70;;;295.23;;
62102;SDS011;48077;48.104;11.702;2022-08-19T11:49:53;464.05;;;302.80;;
62102;SDS011;48077;48.104;11.702;2022-08-19T11:52:17;471.85;;;306.10;;
62102;SDS011;48077;48.104;11.702;2022-08-19T11:54:40;480.20;;;310.50;;
62102;SDS011;48077;48.104;11.702;2022-08-19T11:57:03;487.92;;;315.88;;
62102;SDS011;48077;48.104;11.702;2022-08-19T11:59:27;491.08;;;319.40;;
62102;SDS011;48077;48.104;11.702;2022-08-19T12:01:50;499.00;;;323.77;;
62102;SDS011;48077;48.104;11.702;2022-08-19T12:04:14;502.52;;;325.25;;
62102;SDS011;48077;48.104;11.702;2022-08-19T12:06:38;510.00;;;331.17;;
62102;SDS011;48077;48.104;11.702;2022-08-19T12:09:03;504.85;;;327.77;;
62102;SDS011;48077;48.104;11.702;2022-08-19T12:11:28;505.52;;;325.20;;
62102;SDS011;48077;48.104;11.702;2022-08-19T12:13:52;511.63;;;330.65;;
62102;SDS011;48077;48.104;11.702;2022-08-19T12:16:17;503.50;;;324.23;;
62102;SDS011;48077;48.104;11.702;2022-08-19T12:18:43;501.83;;;321.20;;
62102;SDS011;48077;48.104;11.702;2022-08-19T12:21:09;496.05;;;318.65;;
62102;SDS011;48077;48.104;11.702;2022-08-19T12:23:33;492.23;;;317.55;;
62102;SDS011;48077;48.104;11.702;2022-08-19T12:25:57;493.55;;;314.92;;
62102;SDS011;48077;48.104;11.702;2022-08-19T12:28:21;489.75;;;314.13;;
62102;SDS011;48077;48.104;11.702;2022-08-19T12:30:46;489.83;;;315.45;;
62102;SDS011;48077;48.104;11.702;2022-08-19T12:33:10;486.25;;;311.13;;
62102;SDS011;48077;48.104;11.702;2022-08-19T12:35:34;480.80;;;309.55;;
62102;SDS011;48077;48.104;11.702;2022-08-19T12:37:57;477.95;;;309.48;;
62102;SDS011;48077;48.104;11.702;2022-08-19T12:40:21;480.05;;;310.35;;
62102;SDS011;48077;48.104;11.702;2022-08-19T12:42:45;475.25;;;304.88;;
62102;SDS011;48077;48.104;11.702;2022-08-19T12:45:12;467.50;;;301.02;;
62102;SDS011;48077;48.104;11.702;2022-08-19T12:47:36;471.42;;;303.33;;
62102;SDS011;48077;48.104;11.702;2022-08-19T12:50:00;465.35;;;299.98;;
62102;SDS011;48077;48.104;11.702;2022-08-19T12:52:24;464.67;;;299.58;;
62102;SDS011;48077;48.104;11.702;2022-08-19T12:54:48;462.35;;;301.75;;
62102;SDS011;48077;48.104;11.702;2022-08-19T12:57:13;463.25;;;300.90;;
62102;SDS011;48077;48.104;11.702;2022-08-19T12:59:36;460.45;;;299.50;;
62102;SDS011;48077;48.104;11.702;2022-08-19T13:02:01;459.08;;;299.55;;
62102;SDS011;48077;48.104;11.702;2022-08-19T13:04:24;456.40;;;297.75;;
62102;SDS011;48077;48.104;11.702;2022-08-19T13:06:47;455.20;;;298.67;;
62102;SDS011;48077;48.104;11.702;2022-08-19T13:09:11;455.95;;;296.00;;
62102;SDS011;48077;48.104;11.702;2022-08-19T13:11:34;453.00;;;296.55;;
62102;SDS011;48077;48.104;11.702;2022-08-19T13:13:58;450.27;;;294.27;;
62102;SDS011;48077;48.104;11.702;2022-08-19T13:16:22;448.80;;;295.38;;
62102;SDS011;48077;48.104;11.702;2022-08-19T13:18:45;459.17;;;299.65;;
62102;SDS011;48077;48.104;11.702;2022-08-19T13:21:10;464.05;;;300.15;;
62102;SDS011;48077;48.104;11.702;2022-08-19T13:23:36;469.60;;;302.60;;
62102;SDS011;48077;48.104;11.702;2022-08-19T13:26:00;474.10;;;307.10;;
62102;SDS011;48077;48.104;11.702;2022-08-19T13:28:27;493.67;;;316.23;;
62102;SDS011;48077;48.104;11.702;2022-08-19T13:31:11;502.20;;;320.40;;
62102;SDS011;48077;48.104;11.702;2022-08-19T13:33:57;502.65;;;324.05;;
62102;SDS011;48077;48.104;11.702;2022-08-19T13:36:20;509.40;;;325.15;;
62102;SDS011;48077;48.104;11.702;2022-08-19T13:38:43;520.15;;;334.08;;
62102;SDS011;48077;48.104;11.702;2022-08-19T13:41:07;520.47;;;336.98;;
62102;SDS011;48077;48.104;11.702;2022-08-19T13:43:31;520.17;;;335.83;;
62102;SDS011;48077;48.104;11.702;2022-08-19T13:45:54;528.95;;;339.33;;
62102;SDS011;48077;48.104;11.702;2022-08-19T13:48:18;528.67;;;336.58;;
62102;SDS011;48077;48.104;11.702;2022-08-19T13:50:43;531.65;;;338.85;;
62102;SDS011;48077;48.104;11.702;2022-08-19T13:53:08;524.08;;;338.80;;
62102;SDS011;48077;48.104;11.702;2022-08-19T13:55:33;523.45;;;335.02;;
62102;SDS011;48077;48.104;11.702;2022-08-19T13:57:58;524.90;;;336.55;;
62102;SDS011;48077;48.104;11.702;2022-08-19T14:00:23;524.63;;;336.77;;
62102;SDS011;48077;48.104;11.702;2022-08-19T14:02:50;521.05;;;335.73;;
62102;SDS011;48077;48.104;11.702;2022-08-19T14:05:15;522.85;;;336.73;;
62102;SDS011;48077;48.104;11.702;2022-08-19T14:07:38;508.92;;;329.13;;
62102;SDS011;48077;48.104;11.702;2022-08-19T14:10:02;494.90;;;317.48;;
62102;SDS011;48077;48.104;11.702;2022-08-19T14:12:28;489.60;;;314.05;;
62102;SDS011;48077;48.104;11.702;2022-08-19T14:14:52;475.42;;;306.60;;
62102;SDS011;48077;48.104;11.702;2022-08-19T14:17:15;459.10;;;299.35;;